createdAt,value
2022-09-24T00:01:12.734Z,4.83
2022-09-24T00:03:46.236Z,4.70
2022-09-24T00:06:14.998Z,5.10
2022-09-24T00:08:43.195Z,5.37
2022-09-24T00:11:12.550Z,4.90
2022-09-24T00:13:41.011Z,4.93
2022-09-24T00:16:10.308Z,5.00
2022-09-24T00:18:38.636Z,5.10
2022-09-24T00:21:14.992Z,5.53
2022-09-24T00:23:43.300Z,5.30
2022-09-24T00:26:29.873Z,5.87
2022-09-24T00:28:58.116Z,5.37
2022-09-24T00:31:26.669Z,5.87
2022-09-24T00:33:55.122Z,5.63
2022-09-24T00:36:24.657Z,5.50
2022-09-24T00:38:53.862Z,5.33
2022-09-24T00:41:23.762Z,5.30
2022-09-24T00:43:52.173Z,5.33
2022-09-24T00:46:23.611Z,5.30
2022-09-24T00:48:52.529Z,5.10
2022-09-24T00:51:21.843Z,5.53
2022-09-24T00:53:52.768Z,5.70
2022-09-24T00:56:22.088Z,5.40
2022-09-24T00:58:52.291Z,5.67
2022-09-24T01:01:21.152Z,6.10
2022-09-24T01:03:50.380Z,6.00
2022-09-24T01:06:18.515Z,5.30
2022-09-24T01:08:47.161Z,5.87
2022-09-24T01:11:21.435Z,5.63
2022-09-24T01:13:56.230Z,5.63
2022-09-24T01:16:28.967Z,5.53
2022-09-24T01:19:02.373Z,5.00
2022-09-24T01:21:35.196Z,5.17
2022-09-24T01:24:13.633Z,5.23
2022-09-24T01:26:51.108Z,5.40
2022-09-24T01:29:25.194Z,4.80
2022-09-24T01:31:55.530Z,4.77
2022-09-24T01:34:27.751Z,5.13
2022-09-24T01:36:57.257Z,4.93
2022-09-24T01:39:26.442Z,4.67
2022-09-24T01:41:57.209Z,5.00
2022-09-24T01:44:27.043Z,4.97
2022-09-24T01:46:56.022Z,4.60
2022-09-24T01:49:24.371Z,5.40
2022-09-24T01:51:55.725Z,4.63
2022-09-24T01:54:27.740Z,5.10
2022-09-24T01:56:59.970Z,4.97
2022-09-24T01:59:31.953Z,4.90
2022-09-24T02:02:02.361Z,5.03
2022-09-24T02:04:31.960Z,4.30
2022-09-24T02:07:02.386Z,4.50
2022-09-24T02:09:31.530Z,4.40
2022-09-24T02:12:01.104Z,4.53
2022-09-24T02:14:32.428Z,4.53
2022-09-24T02:17:01.288Z,4.30
2022-09-24T02:19:30.892Z,4.60
2022-09-24T02:21:59.413Z,4.80
2022-09-24T02:24:32.459Z,3.97
2022-09-24T02:27:00.799Z,4.67
2022-09-24T02:29:28.978Z,4.70
2022-09-24T02:31:59.354Z,4.10
2022-09-24T02:34:34.333Z,4.50
2022-09-24T02:37:06.319Z,4.07
2022-09-24T02:39:34.942Z,3.77
2022-09-24T02:42:04.664Z,4.43
2022-09-24T02:44:32.893Z,4.40
2022-09-24T02:47:02.389Z,4.10
2022-09-24T02:49:30.792Z,4.10
2022-09-24T02:51:58.936Z,4.37
2022-09-24T02:54:27.101Z,4.37
2022-09-24T02:56:55.603Z,4.63
2022-09-24T02:59:23.784Z,3.80
2022-09-24T03:01:52.034Z,5.10
2022-09-24T03:04:21.732Z,4.50
2022-09-24T03:06:49.896Z,4.23
2022-09-24T03:09:18.043Z,4.47
2022-09-24T03:11:46.423Z,4.33
2022-09-24T03:14:14.571Z,4.40
2022-09-24T03:16:42.730Z,4.17
2022-09-24T03:19:10.887Z,5.00
2022-09-24T03:21:40.397Z,3.63
2022-09-24T03:24:08.601Z,4.30
2022-09-24T03:26:37.989Z,4.67
2022-09-24T03:29:06.117Z,4.47
2022-09-24T03:31:33.300Z,4.33
2022-09-24T03:34:01.510Z,4.40
2022-09-24T03:36:29.665Z,4.93
2022-09-24T03:38:59.310Z,4.60
2022-09-24T03:41:28.334Z,4.57
2022-09-24T03:43:56.814Z,4.20
2022-09-24T03:46:30.029Z,4.10
2022-09-24T03:49:00.569Z,4.37
2022-09-24T03:51:28.792Z,4.43
2022-09-24T03:53:56.933Z,4.27
2022-09-24T03:56:26.413Z,4.90
2022-09-24T03:58:54.530Z,4.43
2022-09-24T04:01:22.735Z,4.47
2022-09-24T04:03:51.215Z,4.40
2022-09-24T04:06:24.804Z,4.90
2022-09-24T04:08:53.840Z,5.30
2022-09-24T04:11:21.975Z,4.60
2022-09-24T04:13:51.457Z,5.30
2022-09-24T04:16:19.665Z,5.47
2022-09-24T04:18:48.679Z,5.10
2022-09-24T04:21:16.828Z,5.13
2022-09-24T04:23:45.070Z,5.17
2022-09-24T04:26:13.212Z,5.77
2022-09-24T04:28:41.334Z,4.80
2022-09-24T04:31:10.967Z,5.50
2022-09-24T04:33:39.170Z,5.33
2022-09-24T04:36:07.360Z,5.17
2022-09-24T04:38:35.763Z,4.77
2022-09-24T04:41:07.899Z,5.20
2022-09-24T04:43:36.815Z,5.40
2022-09-24T04:46:05.044Z,5.33
2022-09-24T04:48:34.573Z,4.63
2022-09-24T04:51:05.828Z,5.87
2022-09-24T04:53:34.017Z,5.27
2022-09-24T04:56:02.325Z,5.67
2022-09-24T04:58:30.519Z,5.80
2022-09-24T05:00:58.908Z,5.27
2022-09-24T05:03:27.062Z,5.17
2022-09-24T05:05:55.459Z,5.30
2022-09-24T05:08:24.956Z,6.00
2022-09-24T05:10:54.049Z,5.60
2022-09-24T05:13:22.681Z,5.57
2022-09-24T05:15:50.852Z,5.70
2022-09-24T05:18:19.033Z,5.50
2022-09-24T05:20:47.231Z,5.83
2022-09-24T05:23:15.365Z,5.57
2022-09-24T05:25:58.794Z,5.50
2022-09-24T05:28:27.083Z,6.07
2022-09-24T05:30:58.356Z,5.40
2022-09-24T05:33:26.551Z,6.13
2022-09-24T05:35:55.220Z,5.43
2022-09-24T05:38:23.406Z,5.30
2022-09-24T05:40:53.056Z,5.43
2022-09-24T05:43:21.429Z,5.00
2022-09-24T05:45:50.589Z,5.20
2022-09-24T05:48:18.748Z,4.30
2022-09-24T05:50:46.877Z,5.03
2022-09-24T05:53:15.034Z,5.20
2022-09-24T05:55:44.374Z,4.63
2022-09-24T05:58:14.920Z,4.77
2022-09-24T06:00:43.641Z,5.07
2022-09-24T06:03:13.611Z,5.10
2022-09-24T06:05:46.046Z,5.20
2022-09-24T06:08:15.245Z,5.50
2022-09-24T06:10:44.040Z,4.93
2022-09-24T06:13:14.141Z,4.80
2022-09-24T06:15:42.522Z,5.20
2022-09-24T06:18:11.079Z,5.47
2022-09-24T06:20:40.129Z,5.50
2022-09-24T06:23:08.706Z,5.10
2022-09-24T06:25:36.866Z,5.17
2022-09-24T06:28:05.849Z,5.30
2022-09-24T06:30:38.249Z,5.70
2022-09-24T06:33:07.105Z,5.17
2022-09-24T06:35:36.032Z,5.23
2022-09-24T06:38:04.603Z,6.07
2022-09-24T06:40:36.956Z,5.20
2022-09-24T06:43:06.538Z,5.00
2022-09-24T06:45:36.121Z,5.47
2022-09-24T06:48:05.273Z,5.70
2022-09-24T06:50:34.429Z,5.33
2022-09-24T06:53:02.776Z,5.20
2022-09-24T06:55:30.969Z,6.00
2022-09-24T06:58:05.860Z,5.20
2022-09-24T07:00:34.113Z,5.77
2022-09-24T07:03:03.875Z,5.73
2022-09-24T07:05:32.020Z,5.43
2022-09-24T07:08:00.171Z,5.60
2022-09-24T07:10:28.352Z,5.97
2022-09-24T07:12:56.501Z,6.30
2022-09-24T07:15:24.682Z,5.60
2022-09-24T07:17:56.281Z,5.40
2022-09-24T07:20:28.068Z,6.00
2022-09-24T07:22:56.276Z,6.63
2022-09-24T07:25:24.556Z,5.63
2022-09-24T07:27:52.712Z,6.30
2022-09-24T07:30:20.935Z,7.23
2022-09-24T07:32:50.499Z,7.23
2022-09-24T07:35:21.084Z,7.67
2022-09-24T07:37:50.652Z,7.37
2022-09-24T07:40:20.125Z,6.93
2022-09-24T07:42:48.829Z,7.23
2022-09-24T07:45:18.145Z,8.07
2022-09-24T07:47:46.337Z,7.57
2022-09-24T07:50:14.578Z,8.20
2022-09-24T07:52:42.700Z,7.40
2022-09-24T07:55:12.322Z,7.73
2022-09-24T07:57:40.460Z,7.87
2022-09-24T08:00:09.398Z,8.27
2022-09-24T08:02:37.539Z,8.27
2022-09-24T08:05:05.924Z,7.97
2022-09-24T08:07:34.085Z,8.40
2022-09-24T08:10:02.759Z,9.20
2022-09-24T08:12:32.265Z,9.03
2022-09-24T08:15:00.446Z,8.70
2022-09-24T08:17:28.572Z,9.17
2022-09-24T08:19:56.967Z,8.93
2022-09-24T08:22:26.293Z,8.00
2022-09-24T08:24:54.855Z,7.93
2022-09-24T08:27:23.764Z,8.00
2022-09-24T08:29:53.299Z,8.10
2022-09-24T08:32:21.444Z,8.43
2022-09-24T08:34:49.627Z,7.73
2022-09-24T08:37:18.049Z,8.93
2022-09-24T08:39:46.228Z,8.50
2022-09-24T08:42:16.966Z,8.60
2022-09-24T08:45:03.852Z,9.67
2022-09-24T08:47:39.205Z,8.23
2022-09-24T08:50:15.298Z,8.53
2022-09-24T08:53:04.383Z,10.17
2022-09-24T08:55:35.986Z,9.53
2022-09-24T08:58:10.423Z,9.70
2022-09-24T09:00:41.883Z,10.50
2022-09-24T09:03:14.104Z,10.20
2022-09-24T09:05:53.889Z,10.23
2022-09-24T09:08:54.629Z,10.47
2022-09-24T09:11:19.751Z,10.50
2022-09-24T09:13:50.645Z,9.50
2022-09-24T09:16:22.862Z,9.77
2022-09-24T09:18:53.008Z,9.87
2022-09-24T09:21:27.426Z,10.43
2022-09-24T09:23:58.831Z,9.83
2022-09-24T09:26:27.314Z,9.23
2022-09-24T09:28:57.900Z,8.77
2022-09-24T09:31:29.756Z,8.83
2022-09-24T09:34:17.897Z,8.83
2022-09-24T09:36:56.364Z,7.73
2022-09-24T09:39:30.099Z,9.00
2022-09-24T09:42:01.571Z,8.00
2022-09-24T09:44:30.793Z,8.70
2022-09-24T09:47:02.308Z,8.73
2022-09-24T09:49:34.150Z,8.90
2022-09-24T09:52:04.573Z,7.77
2022-09-24T09:54:39.282Z,8.37
2022-09-24T09:57:07.949Z,7.53
2022-09-24T09:59:36.682Z,7.07
2022-09-24T10:02:11.776Z,7.30
2022-09-24T10:04:42.763Z,6.30
2022-09-24T10:07:12.189Z,6.00
2022-09-24T10:09:42.005Z,5.73
2022-09-24T10:12:10.967Z,6.60
2022-09-24T10:14:39.140Z,6.10
2022-09-24T10:17:07.421Z,6.83
2022-09-24T10:19:37.056Z,5.97
2022-09-24T10:22:12.653Z,5.53
2022-09-24T10:24:43.812Z,6.60
2022-09-24T10:27:12.961Z,7.13
2022-09-24T10:29:59.315Z,8.87
2022-09-24T10:32:29.441Z,8.30
2022-09-24T10:34:58.585Z,7.90
2022-09-24T10:37:28.581Z,7.40
2022-09-24T10:39:59.969Z,8.53
2022-09-24T10:42:28.792Z,7.97
2022-09-24T10:44:57.408Z,7.43
2022-09-24T10:47:28.660Z,7.37
2022-09-24T10:50:05.364Z,8.00
2022-09-24T10:52:40.833Z,8.33
2022-09-24T10:55:16.765Z,8.63
2022-09-24T10:57:51.735Z,8.17
2022-09-24T11:00:21.852Z,7.73
2022-09-24T11:03:07.836Z,8.50
2022-09-24T11:05:38.905Z,8.57
2022-09-24T11:08:14.641Z,7.70
2022-09-24T11:10:51.853Z,7.73
2022-09-24T11:13:23.943Z,7.40
2022-09-24T11:15:58.757Z,7.00
2022-09-24T11:18:37.544Z,6.00
2022-09-24T11:21:14.767Z,7.10
2022-09-24T11:23:52.271Z,6.77
2022-09-24T11:26:26.379Z,6.60
2022-09-24T11:29:03.152Z,6.77
2022-09-24T11:31:36.269Z,5.97
2022-09-24T11:34:11.090Z,6.53
2022-09-24T11:36:45.140Z,7.20
2022-09-24T11:39:23.581Z,6.50
2022-09-24T11:41:55.343Z,6.97
2022-09-24T11:44:34.475Z,6.53
2022-09-24T11:47:09.933Z,6.60
2022-09-24T11:49:44.645Z,7.23
2022-09-24T11:52:14.800Z,7.30
2022-09-24T11:54:47.441Z,7.57
2022-09-24T11:57:18.322Z,7.10
2022-09-24T11:59:49.261Z,7.37
2022-09-24T12:02:20.176Z,7.47
2022-09-24T12:04:53.473Z,8.03
2022-09-24T12:07:25.059Z,8.23
2022-09-24T12:09:58.013Z,8.80
2022-09-24T12:12:27.613Z,8.87
2022-09-24T12:14:57.326Z,8.73
2022-09-24T12:17:27.969Z,7.60
2022-09-24T12:19:58.490Z,7.33
2022-09-24T12:22:27.270Z,7.13
2022-09-24T12:24:59.153Z,8.20
2022-09-24T12:27:29.219Z,8.50
2022-09-24T12:30:17.800Z,8.20
2022-09-24T12:32:55.974Z,7.10
2022-09-24T12:35:28.119Z,7.90
2022-09-24T12:38:00.921Z,7.00
2022-09-24T12:40:39.687Z,7.53
2022-09-24T12:43:13.860Z,6.90
2022-09-24T12:45:42.430Z,6.97
2022-09-24T12:48:14.305Z,6.33
2022-09-24T12:50:45.889Z,7.33
2022-09-24T12:53:24.614Z,5.73
2022-09-24T12:55:54.409Z,6.30
2022-09-24T12:58:28.654Z,6.33
2022-09-24T13:01:07.475Z,6.43
2022-09-24T13:03:36.676Z,6.73
2022-09-24T13:06:05.415Z,6.67
2022-09-24T13:08:43.581Z,6.97
2022-09-24T13:11:27.510Z,7.07
2022-09-24T13:14:00.196Z,6.00
2022-09-24T13:16:29.172Z,6.37
2022-09-24T13:18:58.679Z,6.90
2022-09-24T13:21:27.781Z,6.33
2022-09-24T13:23:56.803Z,7.03
2022-09-24T13:26:30.641Z,7.07
2022-09-24T13:29:00.679Z,6.80
2022-09-24T13:31:47.806Z,7.43
2022-09-24T13:34:19.342Z,7.27
2022-09-24T13:36:50.131Z,6.70
2022-09-24T13:39:19.771Z,8.10
2022-09-24T13:41:52.420Z,7.50
2022-09-24T13:44:23.768Z,8.13
2022-09-24T13:46:56.248Z,8.03
2022-09-24T13:49:25.633Z,9.27
2022-09-24T13:51:58.049Z,8.23
2022-09-24T13:54:27.440Z,9.60
2022-09-24T13:57:01.942Z,9.23
2022-09-24T13:59:31.161Z,9.33
2022-09-24T14:01:59.420Z,9.43
2022-09-24T14:04:27.772Z,11.00
2022-09-24T14:06:56.683Z,10.30
2022-09-24T14:09:29.692Z,10.33
2022-09-24T14:11:59.493Z,10.63
2022-09-24T14:14:30.003Z,11.47
2022-09-24T14:17:08.040Z,11.43
2022-09-24T14:19:36.307Z,12.13
2022-09-24T14:22:05.104Z,11.43
2022-09-24T14:24:34.844Z,11.87
2022-09-24T14:27:05.141Z,11.70
2022-09-24T14:29:43.935Z,12.23
2022-09-24T14:32:22.826Z,11.30
2022-09-24T14:34:53.679Z,11.97
2022-09-24T14:37:23.102Z,12.33
2022-09-24T14:39:53.305Z,13.07
2022-09-24T14:42:23.941Z,12.80
2022-09-24T14:44:53.693Z,12.53
2022-09-24T14:47:25.967Z,12.07
2022-09-24T14:49:54.135Z,12.37
2022-09-24T14:52:30.912Z,12.87
2022-09-24T14:55:03.559Z,13.17
2022-09-24T14:57:37.593Z,13.33
2022-09-24T15:00:20.284Z,12.73
2022-09-24T15:02:51.302Z,12.70
2022-09-24T15:05:24.669Z,13.93
2022-09-24T15:07:52.993Z,13.27
2022-09-24T15:10:23.820Z,14.03
2022-09-24T15:12:52.256Z,13.17
2022-09-24T15:15:30.515Z,12.97
2022-09-24T15:17:58.673Z,14.30
2022-09-24T15:20:27.034Z,13.17
2022-09-24T15:22:56.013Z,13.60
2022-09-24T15:25:24.177Z,13.57
2022-09-24T15:27:54.490Z,13.50
2022-09-24T15:30:23.672Z,14.60
2022-09-24T15:32:53.174Z,13.77
2022-09-24T15:35:21.369Z,14.73
2022-09-24T15:37:49.740Z,14.17
2022-09-24T15:40:20.049Z,13.13
2022-09-24T15:42:48.277Z,13.73
2022-09-24T15:45:21.262Z,13.83
2022-09-24T15:47:49.627Z,13.80
2022-09-24T15:50:19.156Z,13.70
2022-09-24T15:52:50.044Z,14.40
2022-09-24T15:55:18.994Z,14.47
2022-09-24T15:57:47.715Z,14.23
2022-09-24T16:00:17.454Z,15.37
2022-09-24T16:02:46.602Z,14.60
2022-09-24T16:05:15.695Z,14.93
2022-09-24T16:07:45.211Z,14.73
2022-09-24T16:10:14.243Z,15.17
2022-09-24T16:12:43.259Z,14.73
2022-09-24T16:15:13.481Z,14.13
2022-09-24T16:17:41.674Z,13.67
2022-09-24T16:20:10.634Z,14.93
2022-09-24T16:22:38.824Z,13.30
2022-09-24T16:25:11.407Z,13.10
2022-09-24T16:27:40.843Z,14.07
2022-09-24T16:30:09.496Z,15.10
2022-09-24T16:32:37.652Z,17.37
2022-09-24T16:35:06.139Z,14.93
2022-09-24T16:37:34.296Z,13.37
2022-09-24T16:40:02.506Z,13.50
2022-09-24T16:42:32.030Z,14.10
2022-09-24T16:45:00.162Z,15.20
2022-09-24T16:47:28.308Z,12.93
2022-09-24T16:49:56.434Z,13.57
2022-09-24T16:52:24.577Z,13.43
2022-09-24T16:54:52.764Z,13.10
2022-09-24T16:57:20.905Z,14.30
2022-09-24T16:59:53.434Z,14.07
2022-09-24T17:02:21.726Z,14.63
2022-09-24T17:04:50.368Z,14.17
2022-09-24T17:07:18.565Z,15.17
2022-09-24T17:10:04.401Z,15.03
2022-09-24T17:12:32.739Z,14.10
2022-09-24T17:15:02.777Z,14.47
2022-09-24T17:17:30.963Z,14.07
2022-09-24T17:19:59.091Z,15.77
2022-09-24T17:22:27.248Z,14.93
2022-09-24T17:24:55.394Z,15.70
2022-09-24T17:27:23.531Z,16.27
2022-09-24T17:29:51.878Z,17.07
2022-09-24T17:32:21.427Z,18.47
2022-09-24T17:34:49.565Z,16.77
2022-09-24T17:37:19.102Z,16.90
2022-09-24T17:39:47.248Z,17.03
2022-09-24T17:42:15.464Z,18.80
2022-09-24T17:44:43.902Z,20.27
2022-09-24T17:47:12.233Z,19.10
2022-09-24T17:49:42.517Z,18.60
2022-09-24T17:52:11.955Z,21.37
2022-09-24T17:54:40.266Z,21.93
2022-09-24T17:57:08.394Z,19.57
2022-09-24T17:59:36.725Z,19.60
2022-09-24T18:02:06.603Z,15.83
2022-09-24T18:04:38.171Z,15.37
2022-09-24T18:07:07.665Z,18.07
2022-09-24T18:09:35.824Z,14.60
2022-09-24T18:12:04.266Z,14.13
2022-09-24T18:14:32.643Z,14.07
2022-09-24T18:17:01.045Z,12.70
2022-09-24T18:19:29.184Z,13.13
2022-09-24T18:21:59.249Z,12.63
2022-09-24T18:24:28.957Z,12.07
2022-09-24T18:26:57.126Z,12.57
2022-09-24T18:29:26.177Z,12.63
2022-09-24T18:31:54.343Z,11.77
2022-09-24T18:34:22.515Z,12.97
2022-09-24T18:36:50.659Z,13.43
2022-09-24T18:39:24.798Z,12.83
2022-09-24T18:41:55.049Z,13.27
2022-09-24T18:44:23.182Z,13.20
2022-09-24T18:46:51.511Z,14.53
2022-09-24T18:49:20.237Z,12.80
2022-09-24T18:51:48.910Z,13.80
2022-09-24T18:54:18.096Z,14.13
2022-09-24T18:56:46.610Z,13.87
2022-09-24T18:59:17.506Z,14.77
2022-09-24T19:01:46.884Z,14.47
2022-09-24T19:04:15.513Z,14.27
2022-09-24T19:06:44.862Z,16.80
2022-09-24T19:09:14.287Z,16.97
2022-09-24T19:11:43.057Z,17.40
2022-09-24T19:14:12.729Z,18.63
2022-09-24T19:16:42.725Z,18.20
2022-09-24T19:19:12.217Z,17.40
2022-09-24T19:21:42.339Z,19.20
2022-09-24T19:24:11.117Z,19.10
2022-09-24T19:26:39.351Z,17.80
2022-09-24T19:29:08.008Z,19.50
2022-09-24T19:31:37.420Z,20.00
2022-09-24T19:34:08.030Z,20.10
2022-09-24T19:36:42.948Z,20.07
2022-09-24T19:39:12.532Z,21.60
2022-09-24T19:41:41.076Z,20.70
2022-09-24T19:44:09.749Z,22.07
2022-09-24T19:46:38.570Z,21.23
2022-09-24T19:49:08.584Z,20.37
2022-09-24T19:51:37.395Z,21.17
2022-09-24T19:54:07.518Z,21.47
2022-09-24T19:56:36.267Z,21.00
2022-09-24T19:59:05.016Z,23.30
2022-09-24T20:01:34.417Z,22.77
2022-09-24T20:04:04.508Z,23.77
2022-09-24T20:06:35.187Z,24.03
2022-09-24T20:09:03.943Z,23.30
2022-09-24T20:11:33.352Z,22.57
2022-09-24T20:14:02.261Z,22.30
2022-09-24T20:16:33.382Z,22.10
2022-09-24T20:19:02.253Z,22.80
2022-09-24T20:21:32.189Z,23.47
2022-09-24T20:24:03.520Z,21.63
2022-09-24T20:26:49.782Z,20.77
2022-09-24T20:29:19.484Z,21.90
2022-09-24T20:31:51.634Z,21.00
2022-09-24T20:34:20.085Z,18.47
2022-09-24T20:36:48.561Z,18.07
2022-09-24T20:39:18.526Z,17.70
2022-09-24T20:41:46.670Z,16.20
2022-09-24T20:44:14.985Z,17.33
2022-09-24T20:46:43.310Z,16.67
2022-09-24T20:49:15.400Z,17.17
2022-09-24T20:51:43.553Z,16.17
2022-09-24T20:54:11.786Z,15.67
2022-09-24T20:56:42.035Z,15.67
2022-09-24T20:59:10.253Z,14.83
2022-09-24T21:01:39.250Z,15.13
2022-09-24T21:04:07.501Z,15.63
2022-09-24T21:06:37.202Z,14.90
2022-09-24T21:09:05.448Z,14.93
2022-09-24T21:11:33.980Z,14.10
2022-09-24T21:14:03.560Z,14.67
2022-09-24T21:16:33.025Z,15.80
2022-09-24T21:19:01.568Z,13.73
2022-09-24T21:21:30.427Z,12.87
2022-09-24T21:24:00.042Z,13.97
2022-09-24T21:26:29.125Z,12.97
2022-09-24T21:28:57.923Z,12.87
2022-09-24T21:31:28.684Z,15.13
2022-09-24T21:33:56.843Z,15.17
2022-09-24T21:36:25.706Z,14.53
2022-09-24T21:38:55.237Z,14.77
2022-09-24T21:41:24.599Z,15.37
2022-09-24T21:43:53.401Z,15.20
2022-09-24T21:46:21.684Z,15.90
2022-09-24T21:48:51.972Z,15.97
2022-09-24T21:51:21.494Z,17.20
2022-09-24T21:53:49.888Z,17.43
2022-09-24T21:56:19.055Z,17.07
2022-09-24T21:58:47.210Z,18.57
2022-09-24T22:01:17.113Z,19.10
2022-09-24T22:03:46.595Z,18.73
2022-09-24T22:06:16.462Z,19.80
2022-09-24T22:08:47.050Z,19.37
2022-09-24T22:11:15.679Z,20.40
2022-09-24T22:13:44.979Z,21.67
2022-09-24T22:16:13.201Z,20.27
2022-09-24T22:18:41.575Z,19.80
2022-09-24T22:21:10.640Z,20.20
2022-09-24T22:23:40.717Z,19.53
2022-09-24T22:26:09.430Z,17.57
2022-09-24T22:28:38.207Z,17.07
2022-09-24T22:31:07.511Z,16.83
2022-09-24T22:33:53.687Z,15.87
2022-09-24T22:36:22.258Z,15.73
2022-09-24T22:38:54.763Z,14.83
2022-09-24T22:41:23.837Z,14.43
2022-09-24T22:43:52.015Z,13.63
2022-09-24T22:46:20.629Z,12.00
2022-09-24T22:48:50.075Z,12.63
2022-09-24T22:51:18.582Z,13.20
2022-09-24T22:53:46.733Z,13.57
2022-09-24T22:56:17.037Z,12.03
2022-09-24T22:58:45.830Z,12.00
2022-09-24T23:01:15.369Z,12.57
2022-09-24T23:03:44.097Z,12.00
2022-09-24T23:06:12.874Z,12.97
2022-09-24T23:08:42.620Z,11.67
2022-09-24T23:11:11.769Z,12.90
2022-09-24T23:13:42.231Z,11.87
2022-09-24T23:16:11.702Z,11.03
2022-09-24T23:18:40.233Z,11.97
2022-09-24T23:21:09.336Z,11.20
2022-09-24T23:23:37.760Z,13.17
2022-09-24T23:26:07.079Z,12.63
2022-09-24T23:28:35.865Z,11.80
2022-09-24T23:31:05.515Z,11.17
2022-09-24T23:33:34.293Z,10.80
2022-09-24T23:36:02.679Z,11.50
2022-09-24T23:38:30.907Z,10.23
2022-09-24T23:41:00.618Z,11.33
2022-09-24T23:43:29.049Z,11.93
2022-09-24T23:45:57.360Z,10.50
2022-09-24T23:48:27.289Z,12.47
2022-09-24T23:50:55.664Z,10.77
2022-09-24T23:53:23.801Z,11.70
2022-09-24T23:55:53.849Z,10.87
2022-09-24T23:58:23.274Z,11.17
